LHR weather

Public forecast

Using degrees Celsius for public forecast. Weather courtesy of forecast.io.

Current aviation weather report (METAR) for London Heathrow Airport

Retrieved 2020/08/10 10:20 UTC (18 minutes ago):

EGLL 101020Z AUTO 07006KT 030V130 9999 NCD 27/17 Q1014 NOSIG

Aviation forecast (TAF) for London Heathrow Airport

Retrieved 2020/08/10 06:00 UTC (5 hours ago):

TAF EGLL 100454Z 1006/1112 04007KT CAVOK PROB30 1010/1018 15010KT PROB30 TEMPO 1013/1112 7000 SHRA